createdAt,value
2019-02-26T00:05:21.562Z,8.73
2019-02-26T00:11:16.110Z,8.22
2019-02-26T00:17:12.924Z,8.82
2019-02-26T00:23:06.097Z,8.96
2019-02-26T00:29:01.832Z,8.52
2019-02-26T00:34:57.516Z,9.51
2019-02-26T00:40:51.086Z,8.77
2019-02-26T00:46:46.139Z,8.42
2019-02-26T00:52:41.091Z,9.06
2019-02-26T00:58:38.845Z,9.12
2019-02-26T01:04:31.144Z,7.9
2019-02-26T01:10:26.159Z,8.58
2019-02-26T01:16:21.144Z,8.47
2019-02-26T01:22:16.111Z,9.01
2019-02-26T01:28:14.044Z,8.33
2019-02-26T01:34:06.154Z,7.8
2019-02-26T01:40:01.175Z,7.95
2019-02-26T01:45:56.176Z,8.1
2019-02-26T01:51:51.771Z,8.54
2019-02-26T01:57:46.160Z,7.99
2019-02-26T02:03:41.179Z,7.61
2019-02-26T02:09:36.190Z,6.87
2019-02-26T02:15:31.154Z,6.71
2019-02-26T02:21:28.344Z,6.8
2019-02-26T02:27:22.525Z,7.06
2019-02-26T02:33:17.884Z,6.3
2019-02-26T02:39:15.295Z,5.67
2019-02-26T02:45:08.219Z,6.39
2019-02-26T02:51:02.159Z,5.98
2019-02-26T02:56:56.689Z,5.31
2019-02-26T03:02:52.895Z,5.39
2019-02-26T03:08:47.890Z,5.43
2019-02-26T03:14:41.957Z,5.32
2019-02-26T03:20:39.797Z,6.05
2019-02-26T03:26:31.236Z,7.06
2019-02-26T03:32:26.209Z,5.94
2019-02-26T03:38:23.388Z,5.36
2019-02-26T03:44:16.219Z,5.88
2019-02-26T03:50:11.222Z,5.43
2019-02-26T03:56:07.980Z,5.77
2019-02-26T04:02:01.247Z,5.63
2019-02-26T04:07:58.900Z,4.79
2019-02-26T04:13:52.089Z,5.13
2019-02-26T04:19:46.246Z,4.53
2019-02-26T04:25:41.261Z,4.36
2019-02-26T04:31:36.251Z,4.63
2019-02-26T04:37:32.695Z,4.51
2019-02-26T04:43:27.806Z,4.12
2019-02-26T04:49:21.321Z,4.54
2019-02-26T04:55:16.278Z,4.62
2019-02-26T05:01:12.935Z,4.39
2019-02-26T05:07:07.950Z,4.02
2019-02-26T05:13:03.862Z,3.64
2019-02-26T05:18:58.438Z,3.72
2019-02-26T05:24:52.780Z,3.21
2019-02-26T05:30:48.270Z,3.19
2019-02-26T05:36:43.435Z,3.59
2019-02-26T05:42:36.300Z,3.7
2019-02-26T05:48:31.285Z,3.14
2019-02-26T05:54:26.285Z,3.38
2019-02-26T06:00:25.204Z,3.23
2019-02-26T06:06:16.290Z,3.36
2019-02-26T06:12:11.299Z,3.28
2019-02-26T06:18:06.318Z,3.01
2019-02-26T06:24:01.306Z,2.99
2019-02-26T06:29:58.070Z,2.57
2019-02-26T06:35:51.326Z,3.02
2019-02-26T06:41:46.825Z,4.08
2019-02-26T06:47:41.324Z,3.49
2019-02-26T06:53:36.327Z,3.02
2019-02-26T06:59:32.325Z,3.51
2019-02-26T07:05:26.337Z,3.56
2019-02-26T07:11:21.343Z,6.78
2019-02-26T07:17:16.336Z,6.43
2019-02-26T07:23:12.904Z,6.9
2019-02-26T07:29:07.990Z,8.32
2019-02-26T07:35:01.350Z,8.28
2019-02-26T07:40:56.598Z,10.12
2019-02-26T07:46:51.347Z,10.14
2019-02-26T07:52:47.352Z,10.75
2019-02-26T07:58:43.017Z,12.31
2019-02-26T08:04:38.335Z,11.9
2019-02-26T08:10:35.079Z,14.59
2019-02-26T08:16:27.617Z,10.63
2019-02-26T08:22:21.411Z,12.57
2019-02-26T08:28:18.380Z,14.93
2019-02-26T08:34:13.172Z,12.27
2019-02-26T08:40:06.406Z,11.42
2019-02-26T08:46:01.418Z,11.26
2019-02-26T08:51:56.401Z,11.12
2019-02-26T08:57:56.372Z,11.54
2019-02-26T09:03:48.149Z,10.8
2019-02-26T09:09:41.407Z,10.2
2019-02-26T09:15:38.370Z,10.53
2019-02-26T09:21:31.413Z,10.54
2019-02-26T09:27:27.179Z,9.85
2019-02-26T09:33:21.477Z,9.1
2019-02-26T09:39:16.433Z,8.99
2019-02-26T09:45:11.425Z,7.86
2019-02-26T09:51:07.426Z,7.04
2019-02-26T09:57:01.458Z,5.87
2019-02-26T10:02:56.471Z,5.24
2019-02-26T10:08:53.266Z,3.72
2019-02-26T10:14:46.504Z,4.43
2019-02-26T10:20:42.770Z,4.33
2019-02-26T10:26:38.290Z,4.67
2019-02-26T10:32:32.782Z,4.43
2019-02-26T10:38:29.477Z,4.15
2019-02-26T10:44:21.520Z,4.11
2019-02-26T10:50:19.312Z,1.87
2019-02-26T10:56:11.493Z,2.35
2019-02-26T11:02:06.502Z,2.52
2019-02-26T11:08:02.793Z,1.59
2019-02-26T11:13:56.529Z,1.55
2019-02-26T11:19:52.971Z,1.32
2019-02-26T11:25:46.501Z,1.54
2019-02-26T11:31:42.410Z,1.23
2019-02-26T11:37:36.509Z,1.37
2019-02-26T11:43:31.531Z,2.03
2019-02-26T11:49:26.534Z,2.03
2019-02-26T11:55:23.067Z,1.8
2019-02-26T12:01:16.550Z,1.67
2019-02-26T12:07:11.536Z,1.91
2019-02-26T12:13:06.570Z,1.7
2019-02-26T12:19:03.518Z,1.87
2019-02-26T12:24:58.752Z,1.88
2019-02-26T12:30:51.551Z,1.65
2019-02-26T12:36:48.030Z,3.73
2019-02-26T12:42:41.556Z,7.61
2019-02-26T12:48:37.711Z,2.3
2019-02-26T12:54:33.473Z,2.16
2019-02-26T13:00:26.638Z,2.5
2019-02-26T13:06:22.961Z,2.29
2019-02-26T13:12:19.881Z,2.19
2019-02-26T13:18:11.567Z,2
2019-02-26T13:24:12.260Z,2
2019-02-26T13:30:01.568Z,1.93
2019-02-26T13:35:58.710Z,1.86
2019-02-26T13:41:54.589Z,1.81
2019-02-26T13:47:46.604Z,2.09
2019-02-26T13:53:41.651Z,1.86
2019-02-26T13:59:36.678Z,2.24
2019-02-26T14:05:37.831Z,2.06
2019-02-26T14:11:26.625Z,2.11
2019-02-26T14:17:21.650Z,2.12
2019-02-26T14:23:16.701Z,1.73
2019-02-26T14:29:11.641Z,1.81
2019-02-26T14:35:06.650Z,1.7
2019-02-26T14:41:02.283Z,1.91
2019-02-26T14:46:56.640Z,1.81
2019-02-26T14:52:51.628Z,1.64
2019-02-26T14:58:46.643Z,2.2
2019-02-26T15:04:41.675Z,2.3
2019-02-26T15:10:36.657Z,1.74
2019-02-26T15:16:31.682Z,2.35
2019-02-26T15:22:26.671Z,2.48
2019-02-26T15:28:21.649Z,2.32
2019-02-26T15:34:16.671Z,2.03
2019-02-26T15:40:11.678Z,1.85
2019-02-26T15:46:06.679Z,2.16
2019-02-26T15:52:01.690Z,2.47
2019-02-26T15:57:56.718Z,3.6
2019-02-26T16:03:51.731Z,3.76
2019-02-26T16:09:46.729Z,3.61
2019-02-26T16:15:41.734Z,3.33
2019-02-26T16:21:36.710Z,4
2019-02-26T16:27:37.487Z,3.36
2019-02-26T16:33:26.716Z,3.33
2019-02-26T16:39:24.487Z,4.12
2019-02-26T16:45:16.732Z,6.69
2019-02-26T16:51:11.726Z,4.88
2019-02-26T16:57:06.719Z,4.63
2019-02-26T17:03:01.813Z,4.17
2019-02-26T17:08:56.716Z,4.85
2019-02-26T17:14:51.758Z,4.42
2019-02-26T17:20:46.731Z,4.35
2019-02-26T17:26:41.809Z,6.83
2019-02-26T17:32:38.072Z,5.94
2019-02-26T17:38:31.803Z,5.27
2019-02-26T17:44:26.783Z,3.96
2019-02-26T17:50:21.821Z,4.1
2019-02-26T17:56:16.788Z,4.11
2019-02-26T18:02:11.778Z,4.24
2019-02-26T18:08:06.770Z,4.32
2019-02-26T18:14:01.819Z,3.6
2019-02-26T18:19:56.770Z,3.69
2019-02-26T18:25:51.787Z,3.2
2019-02-26T18:31:46.796Z,3.21
2019-02-26T18:37:46.280Z,2.9
2019-02-26T18:43:36.808Z,3.13
2019-02-26T18:49:31.809Z,3.25
2019-02-26T18:55:28.321Z,3.67
2019-02-26T19:01:21.796Z,4.22
2019-02-26T19:07:16.802Z,4.27
2019-02-26T19:13:11.822Z,4.61
2019-02-26T19:19:09.077Z,6.82
2019-02-26T19:25:01.816Z,7.47
2019-02-26T19:30:58.723Z,7.76
2019-02-26T19:36:51.840Z,7.73
2019-02-26T19:42:46.840Z,7.83
2019-02-26T19:48:41.826Z,6.63
2019-02-26T19:54:36.864Z,7.52
2019-02-26T20:00:31.893Z,7.72
2019-02-26T20:06:26.986Z,6.86
2019-02-26T20:12:21.859Z,7.6
2019-02-26T20:18:20.392Z,6.31
2019-02-26T20:24:11.868Z,7.17
2019-02-26T20:30:06.895Z,6.28
2019-02-26T20:36:01.862Z,6.76
2019-02-26T20:41:56.896Z,7.79
2019-02-26T20:47:51.869Z,7.17
2019-02-26T20:53:46.917Z,7.69
2019-02-26T20:59:41.878Z,6.17
2019-02-26T21:05:36.928Z,6.32
2019-02-26T21:11:31.885Z,6.51
2019-02-26T21:17:26.876Z,6.45
2019-02-26T21:23:21.869Z,6.07
2019-02-26T21:29:16.873Z,6.72
2019-02-26T21:35:11.950Z,6.45
2019-02-26T21:41:06.890Z,6.13
2019-02-26T21:47:01.900Z,6.57
2019-02-26T21:53:00.123Z,6.55
2019-02-26T21:58:51.951Z,8.09
2019-02-26T22:04:46.906Z,6.79
2019-02-26T22:10:42.779Z,6.31
2019-02-26T22:16:36.904Z,6.53
2019-02-26T22:22:32.018Z,6.23
2019-02-26T22:28:26.936Z,6.65
2019-02-26T22:34:21.922Z,6.38
2019-02-26T22:40:16.909Z,6.71
2019-02-26T22:46:11.953Z,6.72
2019-02-26T22:52:06.927Z,6.92
2019-02-26T22:58:02.729Z,6.85
2019-02-26T23:03:56.940Z,6.55
2019-02-26T23:09:52.344Z,6.77
2019-02-26T23:15:46.935Z,5.46
2019-02-26T23:21:41.967Z,5.63
2019-02-26T23:27:36.965Z,5.28
2019-02-26T23:33:32.036Z,6.23
2019-02-26T23:39:26.952Z,5.46
2019-02-26T23:45:24.123Z,6.21
2019-02-26T23:51:20.000Z,6.23
2019-02-26T23:57:11.972Z,6.32
